sensor_id;sensor_type;location;lat;lon;timestamp;pressure;altitude;pressure_sealevel;temperature;humidity
17362;BME280;8798;51.938;4.348;2022-11-20T00:01:05;100891.41;;;2.08;90.60
17362;BME280;8798;51.938;4.348;2022-11-20T00:03:33;100902.00;;;2.08;90.18
17362;BME280;8798;51.938;4.348;2022-11-20T00:06:02;100897.53;;;2.08;90.69
17362;BME280;8798;51.938;4.348;2022-11-20T00:08:31;100897.72;;;2.05;90.57
17362;BME280;8798;51.938;4.348;2022-11-20T00:11:02;100894.22;;;2.05;90.40
17362;BME280;8798;51.938;4.348;2022-11-20T00:13:30;100903.03;;;2.05;89.86
17362;BME280;8798;51.938;4.348;2022-11-20T00:15:59;100897.91;;;2.02;90.64
17362;BME280;8798;51.938;4.348;2022-11-20T00:18:28;100898.00;;;2.01;90.42
17362;BME280;8798;51.938;4.348;2022-11-20T00:21:00;100897.25;;;1.99;90.76
17362;BME280;8798;51.938;4.348;2022-11-20T00:23:28;100895.53;;;1.98;90.50
17362;BME280;8798;51.938;4.348;2022-11-20T00:25:56;100893.00;;;1.96;90.55
17362;BME280;8798;51.938;4.348;2022-11-20T00:28:24;100890.56;;;1.93;89.97
17362;BME280;8798;51.938;4.348;2022-11-20T00:30:52;100885.34;;;1.91;90.79
17362;BME280;8798;51.938;4.348;2022-11-20T00:33:19;100871.53;;;1.86;90.01
17362;BME280;8798;51.938;4.348;2022-11-20T00:35:49;100872.56;;;1.84;90.97
17362;BME280;8798;51.938;4.348;2022-11-20T00:38:16;100864.06;;;1.79;90.41
17362;BME280;8798;51.938;4.348;2022-11-20T00:40:44;100865.00;;;1.78;90.32
17362;BME280;8798;51.938;4.348;2022-11-20T00:43:20;100851.09;;;1.74;90.83
17362;BME280;8798;51.938;4.348;2022-11-20T00:45:47;100850.44;;;1.70;90.90
17362;BME280;8798;51.938;4.348;2022-11-20T00:48:15;100840.03;;;1.67;90.51
17362;BME280;8798;51.938;4.348;2022-11-20T00:50:43;100833.13;;;1.65;89.75
17362;BME280;8798;51.938;4.348;2022-11-20T00:53:12;100835.91;;;1.63;89.95
17362;BME280;8798;51.938;4.348;2022-11-20T00:55:40;100830.78;;;1.60;90.54
17362;BME280;8798;51.938;4.348;2022-11-20T00:58:08;100832.56;;;1.60;90.65
17362;BME280;8798;51.938;4.348;2022-11-20T01:00:39;100836.19;;;1.59;90.40
17362;BME280;8798;51.938;4.348;2022-11-20T01:03:08;100837.03;;;1.59;90.68
17362;BME280;8798;51.938;4.348;2022-11-20T01:05:35;100841.56;;;1.57;90.07
17362;BME280;8798;51.938;4.348;2022-11-20T01:08:04;100840.78;;;1.55;90.15
17362;BME280;8798;51.938;4.348;2022-11-20T01:10:33;100841.00;;;1.52;90.08
17362;BME280;8798;51.938;4.348;2022-11-20T01:13:01;100833.13;;;1.50;90.48
17362;BME280;8798;51.938;4.348;2022-11-20T01:15:51;100837.59;;;1.50;89.82
17362;BME280;8798;51.938;4.348;2022-11-20T01:18:19;100841.19;;;1.49;90.06
17362;BME280;8798;51.938;4.348;2022-11-20T01:20:47;100850.94;;;1.48;90.58
17362;BME280;8798;51.938;4.348;2022-11-20T01:23:15;100866.69;;;1.50;89.90
17362;BME280;8798;51.938;4.348;2022-11-20T01:25:44;100874.56;;;1.52;90.17
17362;BME280;8798;51.938;4.348;2022-11-20T01:28:12;100873.72;;;1.51;90.56
17362;BME280;8798;51.938;4.348;2022-11-20T01:30:39;100871.97;;;1.50;91.02
17362;BME280;8798;51.938;4.348;2022-11-20T01:33:07;100881.72;;;1.49;90.27
17362;BME280;8798;51.938;4.348;2022-11-20T01:35:35;100876.50;;;1.48;89.86
17362;BME280;8798;51.938;4.348;2022-11-20T01:38:03;100873.97;;;1.46;89.85
17362;BME280;8798;51.938;4.348;2022-11-20T01:40:31;100869.81;;;1.42;90.52
17362;BME280;8798;51.938;4.348;2022-11-20T01:43:14;100875.19;;;1.41;90.03
17362;BME280;8798;51.938;4.348;2022-11-20T01:46:04;100858.66;;;1.37;89.79
17362;BME280;8798;51.938;4.348;2022-11-20T01:48:36;100864.78;;;1.38;90.15
17362;BME280;8798;51.938;4.348;2022-11-20T01:51:10;100874.53;;;1.37;90.68
17362;BME280;8798;51.938;4.348;2022-11-20T01:53:40;100869.31;;;1.36;90.24
17362;BME280;8798;51.938;4.348;2022-11-20T01:56:11;100873.75;;;1.35;90.48
17362;BME280;8798;51.938;4.348;2022-11-20T01:58:44;100875.56;;;1.35;90.30
17362;BME280;8798;51.938;4.348;2022-11-20T02:01:14;100882.66;;;1.34;89.81
17362;BME280;8798;51.938;4.348;2022-11-20T02:03:43;100882.75;;;1.33;90.47
17362;BME280;8798;51.938;4.348;2022-11-20T02:06:16;100874.81;;;1.33;89.84
17362;BME280;8798;51.938;4.348;2022-11-20T02:08:45;100889.06;;;1.30;89.73
17362;BME280;8798;51.938;4.348;2022-11-20T02:11:13;100874.16;;;1.29;90.65
17362;BME280;8798;51.938;4.348;2022-11-20T02:13:43;100880.34;;;1.28;90.15
17362;BME280;8798;51.938;4.348;2022-11-20T02:16:16;100882.25;;;1.26;90.00
17362;BME280;8798;51.938;4.348;2022-11-20T02:18:46;100880.56;;;1.25;90.62
17362;BME280;8798;51.938;4.348;2022-11-20T02:21:24;100895.56;;;1.24;89.81
17362;BME280;8798;51.938;4.348;2022-11-20T02:24:00;100875.53;;;1.20;90.41
17362;BME280;8798;51.938;4.348;2022-11-20T02:26:31;100865.97;;;1.18;90.80
17362;BME280;8798;51.938;4.348;2022-11-20T02:29:00;100857.38;;;1.14;90.63
17362;BME280;8798;51.938;4.348;2022-11-20T02:31:35;100863.59;;;1.13;90.77
17362;BME280;8798;51.938;4.348;2022-11-20T02:34:04;100865.41;;;1.13;89.96
17362;BME280;8798;51.938;4.348;2022-11-20T02:36:33;100860.13;;;1.13;89.75
17362;BME280;8798;51.938;4.348;2022-11-20T02:39:03;100869.00;;;1.12;90.77
17362;BME280;8798;51.938;4.348;2022-11-20T02:41:33;100882.22;;;1.12;90.21
17362;BME280;8798;51.938;4.348;2022-11-20T02:44:03;100877.88;;;1.11;89.71
17362;BME280;8798;51.938;4.348;2022-11-20T02:46:31;100902.44;;;1.13;90.46
17362;BME280;8798;51.938;4.348;2022-11-20T02:49:01;100899.78;;;1.13;89.69
17362;BME280;8798;51.938;4.348;2022-11-20T02:51:30;100899.03;;;1.11;90.28
17362;BME280;8798;51.938;4.348;2022-11-20T02:53:58;100894.69;;;1.10;89.58
17362;BME280;8798;51.938;4.348;2022-11-20T02:56:27;100897.41;;;1.08;90.10
17362;BME280;8798;51.938;4.348;2022-11-20T02:58:55;100894.75;;;1.08;90.36
17362;BME280;8798;51.938;4.348;2022-11-20T03:01:23;100893.16;;;1.05;90.55
17362;BME280;8798;51.938;4.348;2022-11-20T03:03:50;100896.75;;;1.04;89.71
17362;BME280;8798;51.938;4.348;2022-11-20T03:06:20;100899.47;;;1.03;90.67
17362;BME280;8798;51.938;4.348;2022-11-20T03:08:49;100887.28;;;1.00;89.95
17362;BME280;8798;51.938;4.348;2022-11-20T03:11:17;100890.88;;;0.99;89.75
17362;BME280;8798;51.938;4.348;2022-11-20T03:13:46;100891.81;;;0.98;90.21
17362;BME280;8798;51.938;4.348;2022-11-20T03:16:15;100885.75;;;0.96;90.66
17362;BME280;8798;51.938;4.348;2022-11-20T03:18:44;100882.38;;;0.94;89.73
17362;BME280;8798;51.938;4.348;2022-11-20T03:21:12;100882.44;;;0.93;89.95
17362;BME280;8798;51.938;4.348;2022-11-20T03:23:41;100880.66;;;0.93;90.46
17362;BME280;8798;51.938;4.348;2022-11-20T03:26:10;100879.03;;;0.91;89.89
17362;BME280;8798;51.938;4.348;2022-11-20T03:28:38;100872.13;;;0.88;90.58
17362;BME280;8798;51.938;4.348;2022-11-20T03:31:10;100881.00;;;0.87;89.83
17362;BME280;8798;51.938;4.348;2022-11-20T03:33:38;100881.88;;;0.88;89.86
17362;BME280;8798;51.938;4.348;2022-11-20T03:36:08;100896.00;;;0.86;90.42
17362;BME280;8798;51.938;4.348;2022-11-20T03:38:37;100893.28;;;0.88;90.16
17362;BME280;8798;51.938;4.348;2022-11-20T03:41:07;100895.94;;;0.88;90.35
17362;BME280;8798;51.938;4.348;2022-11-20T03:43:36;100903.84;;;0.88;90.16
17362;BME280;8798;51.938;4.348;2022-11-20T03:46:05;100903.84;;;0.88;90.33
17362;BME280;8798;51.938;4.348;2022-11-20T03:48:35;100913.59;;;0.88;90.09
17362;BME280;8798;51.938;4.348;2022-11-20T03:51:07;100924.94;;;0.90;89.67
17362;BME280;8798;51.938;4.348;2022-11-20T03:53:35;100924.09;;;0.89;90.30
17362;BME280;8798;51.938;4.348;2022-11-20T03:56:04;100927.56;;;0.90;90.38
17362;BME280;8798;51.938;4.348;2022-11-20T03:58:32;100932.03;;;0.89;90.75
17362;BME280;8798;51.938;4.348;2022-11-20T04:01:05;100931.13;;;0.89;89.89
17362;BME280;8798;51.938;4.348;2022-11-20T04:03:35;100920.75;;;0.85;89.99
17362;BME280;8798;51.938;4.348;2022-11-20T04:06:05;100929.63;;;0.84;90.35
17362;BME280;8798;51.938;4.348;2022-11-20T04:08:33;100934.03;;;0.84;90.58
17362;BME280;8798;51.938;4.348;2022-11-20T04:11:11;100931.31;;;0.85;90.16
17362;BME280;8798;51.938;4.348;2022-11-20T04:13:40;100931.31;;;0.85;90.29
17362;BME280;8798;51.938;4.348;2022-11-20T04:16:09;100942.84;;;0.84;89.68
17362;BME280;8798;51.938;4.348;2022-11-20T04:18:38;100945.50;;;0.84;90.54
17362;BME280;8798;51.938;4.348;2022-11-20T04:21:06;100944.63;;;0.84;90.73
17362;BME280;8798;51.938;4.348;2022-11-20T04:23:34;100950.78;;;0.84;90.71
17362;BME280;8798;51.938;4.348;2022-11-20T04:26:03;100946.41;;;0.83;89.99
17362;BME280;8798;51.938;4.348;2022-11-20T04:28:31;100952.53;;;0.84;90.77
17362;BME280;8798;51.938;4.348;2022-11-20T04:31:04;100958.72;;;0.84;90.35
17362;BME280;8798;51.938;4.348;2022-11-20T04:33:32;100939.44;;;0.82;90.19
17362;BME280;8798;51.938;4.348;2022-11-20T04:36:06;100945.66;;;0.81;90.56
17362;BME280;8798;51.938;4.348;2022-11-20T04:38:34;100959.75;;;0.82;90.61
17362;BME280;8798;51.938;4.348;2022-11-20T04:41:04;100964.84;;;0.85;90.50
17362;BME280;8798;51.938;4.348;2022-11-20T04:43:33;100971.81;;;0.86;90.59
17362;BME280;8798;51.938;4.348;2022-11-20T04:46:01;100982.41;;;0.86;90.03
17362;BME280;8798;51.938;4.348;2022-11-20T04:48:29;100977.13;;;0.86;90.29
17362;BME280;8798;51.938;4.348;2022-11-20T04:50:57;100991.19;;;0.86;90.19
17362;BME280;8798;51.938;4.348;2022-11-20T04:53:31;100994.59;;;0.89;90.17
17362;BME280;8798;51.938;4.348;2022-11-20T04:56:00;100995.53;;;0.88;90.58
17362;BME280;8798;51.938;4.348;2022-11-20T04:58:28;101000.75;;;0.89;90.76
17362;BME280;8798;51.938;4.348;2022-11-20T05:01:01;101002.53;;;0.89;89.69
17362;BME280;8798;51.938;4.348;2022-11-20T05:03:30;101013.97;;;0.89;90.51
17362;BME280;8798;51.938;4.348;2022-11-20T05:06:00;101013.88;;;0.91;89.81
17362;BME280;8798;51.938;4.348;2022-11-20T05:08:29;101008.75;;;0.88;90.56
17362;BME280;8798;51.938;4.348;2022-11-20T05:11:01;101011.41;;;0.88;90.57
17362;BME280;8798;51.938;4.348;2022-11-20T05:13:29;101014.06;;;0.88;90.39
17362;BME280;8798;51.938;4.348;2022-11-20T05:16:01;101011.41;;;0.88;89.81
17362;BME280;8798;51.938;4.348;2022-11-20T05:18:29;101008.00;;;0.85;90.05
17362;BME280;8798;51.938;4.348;2022-11-20T05:20:58;101007.22;;;0.83;90.12
17362;BME280;8798;51.938;4.348;2022-11-20T05:23:27;100995.03;;;0.81;89.79
17362;BME280;8798;51.938;4.348;2022-11-20T05:25:56;100989.91;;;0.78;89.97
17362;BME280;8798;51.938;4.348;2022-11-20T05:28:28;100998.69;;;0.78;89.80
17362;BME280;8798;51.938;4.348;2022-11-20T05:31:04;101001.16;;;0.81;90.23
17362;BME280;8798;51.938;4.348;2022-11-20T05:33:32;101016.09;;;0.82;90.66
17362;BME280;8798;51.938;4.348;2022-11-20T05:36:00;101020.44;;;0.83;90.25
17362;BME280;8798;51.938;4.348;2022-11-20T05:38:28;101028.31;;;0.85;89.75
17362;BME280;8798;51.938;4.348;2022-11-20T05:41:03;101043.97;;;0.88;89.80
17362;BME280;8798;51.938;4.348;2022-11-20T05:43:33;101057.91;;;0.92;89.90
17362;BME280;8798;51.938;4.348;2022-11-20T05:46:02;101066.69;;;0.92;89.94
17362;BME280;8798;51.938;4.348;2022-11-20T05:48:31;101061.28;;;0.94;90.31
17362;BME280;8798;51.938;4.348;2022-11-20T05:51:01;101071.03;;;0.93;90.85
17362;BME280;8798;51.938;4.348;2022-11-20T05:53:29;101073.66;;;0.93;90.35
17362;BME280;8798;51.938;4.348;2022-11-20T05:55:58;101071.88;;;0.94;90.76
17362;BME280;8798;51.938;4.348;2022-11-20T05:58:27;101080.56;;;0.96;90.61
17362;BME280;8798;51.938;4.348;2022-11-20T06:01:03;101077.84;;;0.97;89.96
17362;BME280;8798;51.938;4.348;2022-11-20T06:03:31;101090.22;;;0.97;90.59
17362;BME280;8798;51.938;4.348;2022-11-20T06:06:00;101085.03;;;0.95;89.68
17362;BME280;8798;51.938;4.348;2022-11-20T06:08:29;101090.22;;;0.97;90.05
17362;BME280;8798;51.938;4.348;2022-11-20T06:10:57;101085.88;;;0.96;90.57
17362;BME280;8798;51.938;4.348;2022-11-20T06:13:25;101085.97;;;0.94;90.35
17362;BME280;8798;51.938;4.348;2022-11-20T06:15:53;101087.59;;;0.97;90.46
17362;BME280;8798;51.938;4.348;2022-11-20T06:18:23;101092.78;;;0.98;89.63
17362;BME280;8798;51.938;4.348;2022-11-20T06:20:59;101124.25;;;1.03;90.48
17362;BME280;8798;51.938;4.348;2022-11-20T06:23:28;101144.31;;;1.07;90.30
17362;BME280;8798;51.938;4.348;2022-11-20T06:25:58;101152.88;;;1.12;90.15
17362;BME280;8798;51.938;4.348;2022-11-20T06:28:28;101164.22;;;1.14;90.31
17362;BME280;8798;51.938;4.348;2022-11-20T06:30:56;101184.25;;;1.18;89.67
17362;BME280;8798;51.938;4.348;2022-11-20T06:33:26;101208.59;;;1.25;89.65
17362;BME280;8798;51.938;4.348;2022-11-20T06:35:56;101231.22;;;1.31;90.56
17362;BME280;8798;51.938;4.348;2022-11-20T06:38:29;101256.41;;;1.38;90.42
17362;BME280;8798;51.938;4.348;2022-11-20T06:40:58;101282.63;;;1.42;90.08
17362;BME280;8798;51.938;4.348;2022-11-20T06:43:26;101301.69;;;1.49;89.63
17362;BME280;8798;51.938;4.348;2022-11-20T06:45:58;101318.19;;;1.54;89.76
17362;BME280;8798;51.938;4.348;2022-11-20T06:48:28;101334.69;;;1.59;89.73
17362;BME280;8798;51.938;4.348;2022-11-20T06:50:57;101350.38;;;1.62;90.20
17362;BME280;8798;51.938;4.348;2022-11-20T06:53:25;101366.97;;;1.66;90.63
17362;BME280;8798;51.938;4.348;2022-11-20T06:55:55;101372.09;;;1.69;90.09
17362;BME280;8798;51.938;4.348;2022-11-20T06:58:26;101397.47;;;1.73;90.63
17362;BME280;8798;51.938;4.348;2022-11-20T07:00:57;101394.75;;;1.75;90.42
17362;BME280;8798;51.938;4.348;2022-11-20T07:03:25;101406.91;;;1.79;89.90
17362;BME280;8798;51.938;4.348;2022-11-20T07:05:56;101418.16;;;1.82;91.00
17362;BME280;8798;51.938;4.348;2022-11-20T07:08:24;101418.88;;;1.86;90.07
17362;BME280;8798;51.938;4.348;2022-11-20T07:10:52;101445.13;;;1.90;90.03
17362;BME280;8798;51.938;4.348;2022-11-20T07:13:20;101469.56;;;1.96;89.89
17362;BME280;8798;51.938;4.348;2022-11-20T07:15:48;101483.44;;;2.01;90.54
17362;BME280;8798;51.938;4.348;2022-11-20T07:18:16;101498.19;;;2.05;90.62
17362;BME280;8798;51.938;4.348;2022-11-20T07:20:44;101505.06;;;2.09;90.98
17362;BME280;8798;51.938;4.348;2022-11-20T07:23:13;101525.19;;;2.13;90.16
17362;BME280;8798;51.938;4.348;2022-11-20T07:25:41;101534.59;;;2.19;90.32
17362;BME280;8798;51.938;4.348;2022-11-20T07:28:09;101549.47;;;2.21;89.74
17362;BME280;8798;51.938;4.348;2022-11-20T07:30:37;101561.63;;;2.25;91.10
17362;BME280;8798;51.938;4.348;2022-11-20T07:33:05;101572.06;;;2.28;90.47
17362;BME280;8798;51.938;4.348;2022-11-20T07:35:33;101588.59;;;2.33;90.30
17362;BME280;8798;51.938;4.348;2022-11-20T07:38:02;101602.44;;;2.39;89.86
17362;BME280;8798;51.938;4.348;2022-11-20T07:40:31;101611.03;;;2.44;91.10
17362;BME280;8798;51.938;4.348;2022-11-20T07:42:59;101623.25;;;2.46;90.15
17362;BME280;8798;51.938;4.348;2022-11-20T07:45:27;101637.97;;;2.52;90.68
17362;BME280;8798;51.938;4.348;2022-11-20T07:47:55;101656.31;;;2.56;90.33
17362;BME280;8798;51.938;4.348;2022-11-20T07:50:23;101667.53;;;2.62;91.09
17362;BME280;8798;51.938;4.348;2022-11-20T07:52:51;101688.50;;;2.66;89.70
17362;BME280;8798;51.938;4.348;2022-11-20T07:55:19;101705.03;;;2.71;90.72
17362;BME280;8798;51.938;4.348;2022-11-20T07:57:55;101710.09;;;2.76;90.19
17362;BME280;8798;51.938;4.348;2022-11-20T08:00:23;101715.16;;;2.80;90.14
17362;BME280;8798;51.938;4.348;2022-11-20T08:02:52;101728.28;;;2.84;90.51
17362;BME280;8798;51.938;4.348;2022-11-20T08:05:20;101746.59;;;2.88;90.35
17362;BME280;8798;51.938;4.348;2022-11-20T08:07:48;101754.31;;;2.93;90.24
17362;BME280;8798;51.938;4.348;2022-11-20T08:10:16;101775.22;;;2.99;90.85
17362;BME280;8798;51.938;4.348;2022-11-20T08:12:45;101780.41;;;3.02;90.40
17362;BME280;8798;51.938;4.348;2022-11-20T08:15:32;101792.47;;;3.08;90.42
17362;BME280;8798;51.938;4.348;2022-11-20T08:18:01;101793.31;;;3.08;90.19
17362;BME280;8798;51.938;4.348;2022-11-20T08:20:49;101782.72;;;3.08;90.41
17362;BME280;8798;51.938;4.348;2022-11-20T08:23:17;101767.81;;;3.06;90.40
17362;BME280;8798;51.938;4.348;2022-11-20T08:25:49;101766.88;;;3.07;90.55
17362;BME280;8798;51.938;4.348;2022-11-20T08:28:17;101761.59;;;3.07;90.27
17362;BME280;8798;51.938;4.348;2022-11-20T08:30:49;101764.13;;;3.08;90.34
17362;BME280;8798;51.938;4.348;2022-11-20T08:33:18;101763.13;;;3.11;90.07
17362;BME280;8798;51.938;4.348;2022-11-20T08:35:45;101770.06;;;3.13;90.68
17362;BME280;8798;51.938;4.348;2022-11-20T08:38:13;101776.06;;;3.17;89.97
17362;BME280;8798;51.938;4.348;2022-11-20T08:40:41;101783.03;;;3.19;90.35
17362;BME280;8798;51.938;4.348;2022-11-20T08:43:29;101797.75;;;3.25;90.79
17362;BME280;8798;51.938;4.348;2022-11-20T08:45:58;101806.34;;;3.30;90.87
17362;BME280;8798;51.938;4.348;2022-11-20T08:48:26;101811.47;;;3.33;90.59
17362;BME280;8798;51.938;4.348;2022-11-20T08:51:02;101821.97;;;3.36;90.54
17362;BME280;8798;51.938;4.348;2022-11-20T08:53:30;101830.59;;;3.40;90.19
17362;BME280;8798;51.938;4.348;2022-11-20T08:55:58;101836.53;;;3.45;90.66
17362;BME280;8798;51.938;4.348;2022-11-20T08:58:26;101846.13;;;3.48;90.37
17362;BME280;8798;51.938;4.348;2022-11-20T09:00:54;101846.84;;;3.51;90.31
17362;BME280;8798;51.938;4.348;2022-11-20T09:03:23;101858.09;;;3.56;90.10
17362;BME280;8798;51.938;4.348;2022-11-20T09:05:58;101880.88;;;3.60;90.57
17362;BME280;8798;51.938;4.348;2022-11-20T09:08:27;101880.69;;;3.63;90.88
17362;BME280;8798;51.938;4.348;2022-11-20T09:10:57;101883.22;;;3.66;90.36
17362;BME280;8798;51.938;4.348;2022-11-20T09:13:25;101897.09;;;3.72;90.44
17362;BME280;8798;51.938;4.348;2022-11-20T09:15:54;101898.63;;;3.76;90.80
17362;BME280;8798;51.938;4.348;2022-11-20T09:18:27;101921.41;;;3.81;90.43
17362;BME280;8798;51.938;4.348;2022-11-20T09:20:56;101935.28;;;3.86;90.08
17362;BME280;8798;51.938;4.348;2022-11-20T09:23:24;101936.75;;;3.92;90.60
17362;BME280;8798;51.938;4.348;2022-11-20T09:25:54;101944.50;;;3.97;90.34
17362;BME280;8798;51.938;4.348;2022-11-20T09:28:26;101947.09;;;3.98;90.38
17362;BME280;8798;51.938;4.348;2022-11-20T09:30:54;101939.19;;;3.97;90.55
17362;BME280;8798;51.938;4.348;2022-11-20T09:33:21;101922.38;;;3.96;90.48
17362;BME280;8798;51.938;4.348;2022-11-20T09:35:51;101916.03;;;3.99;90.37
17362;BME280;8798;51.938;4.348;2022-11-20T09:38:19;101923.91;;;4.00;90.39
17362;BME280;8798;51.938;4.348;2022-11-20T09:40:50;101924.63;;;4.04;90.13
17362;BME280;8798;51.938;4.348;2022-11-20T09:43:24;101922.75;;;4.06;90.58
17362;BME280;8798;51.938;4.348;2022-11-20T09:46:06;101926.19;;;4.08;90.47
17362;BME280;8798;51.938;4.348;2022-11-20T09:48:44;101923.41;;;4.09;90.46
17362;BME280;8798;51.938;4.348;2022-11-20T09:51:25;101921.53;;;4.12;89.91
17362;BME280;8798;51.938;4.348;2022-11-20T09:54:05;101913.56;;;4.12;90.90
17362;BME280;8798;51.938;4.348;2022-11-20T09:56:39;101917.78;;;4.16;90.45
17362;BME280;8798;51.938;4.348;2022-11-20T09:59:18;101915.81;;;4.19;90.60
17362;BME280;8798;51.938;4.348;2022-11-20T10:01:48;101927.03;;;4.24;90.52
17362;BME280;8798;51.938;4.348;2022-11-20T10:04:18;101937.44;;;4.29;90.47
17362;BME280;8798;51.938;4.348;2022-11-20T10:06:53;101939.00;;;4.33;90.39
17362;BME280;8798;51.938;4.348;2022-11-20T10:09:50;101947.66;;;4.37;90.33
17362;BME280;8798;51.938;4.348;2022-11-20T10:12:25;101947.47;;;4.40;90.13
17362;BME280;8798;51.938;4.348;2022-11-20T10:15:06;101960.53;;;4.44;90.15
17362;BME280;8798;51.938;4.348;2022-11-20T10:17:54;101968.19;;;4.50;90.45
17362;BME280;8798;51.938;4.348;2022-11-20T10:20:29;101974.97;;;4.56;90.59
17362;BME280;8798;51.938;4.348;2022-11-20T10:23:16;101988.88;;;4.61;90.65
17362;BME280;8798;51.938;4.348;2022-11-20T10:25:56;101995.63;;;4.67;90.62
17362;BME280;8798;51.938;4.348;2022-11-20T10:28:46;101999.19;;;4.67;90.34
17362;BME280;8798;51.938;4.348;2022-11-20T10:31:30;101985.78;;;4.69;90.97
17362;BME280;8798;51.938;4.348;2022-11-20T10:34:01;101976.88;;;4.70;90.27
17362;BME280;8798;51.938;4.348;2022-11-20T10:36:43;101976.69;;;4.73;90.32
17362;BME280;8798;51.938;4.348;2022-11-20T10:39:18;101956.31;;;4.72;90.68
17362;BME280;8798;51.938;4.348;2022-11-20T10:41:52;101945.78;;;4.70;90.62
17362;BME280;8798;51.938;4.348;2022-11-20T10:44:22;101935.13;;;4.70;90.42
17362;BME280;8798;51.938;4.348;2022-11-20T10:47:13;101925.34;;;4.71;90.67
17362;BME280;8798;51.938;4.348;2022-11-20T10:49:42;101929.44;;;4.77;90.35
17362;BME280;8798;51.938;4.348;2022-11-20T10:52:15;101937.25;;;4.80;90.68
17362;BME280;8798;51.938;4.348;2022-11-20T10:54:52;101938.72;;;4.85;90.57
17362;BME280;8798;51.938;4.348;2022-11-20T10:57:38;101945.69;;;4.88;90.66
17362;BME280;8798;51.938;4.348;2022-11-20T11:00:13;101942.00;;;4.90;90.30
17362;BME280;8798;51.938;4.348;2022-11-20T11:02:47;101915.56;;;4.87;90.17
17362;BME280;8798;51.938;4.348;2022-11-20T11:05:24;101902.13;;;4.89;90.09
17362;BME280;8798;51.938;4.348;2022-11-20T11:07:54;101902.06;;;4.90;90.46
17362;BME280;8798;51.938;4.348;2022-11-20T11:10:29;101913.28;;;4.95;89.97
17362;BME280;8798;51.938;4.348;2022-11-20T11:13:00;101913.97;;;4.99;90.17
17362;BME280;8798;51.938;4.348;2022-11-20T11:15:29;101919.13;;;5.02;90.30
17362;BME280;8798;51.938;4.348;2022-11-20T11:17:57;101924.16;;;5.07;90.23
17362;BME280;8798;51.938;4.348;2022-11-20T11:20:26;101937.97;;;5.13;90.26
17362;BME280;8798;51.938;4.348;2022-11-20T11:22:55;101948.28;;;5.20;90.76
17362;BME280;8798;51.938;4.348;2022-11-20T11:25:27;101949.81;;;5.24;90.14
17362;BME280;8798;51.938;4.348;2022-11-20T11:27:57;101977.91;;;5.29;90.52
17362;BME280;8798;51.938;4.348;2022-11-20T11:30:27;101974.09;;;5.33;89.94
17362;BME280;8798;51.938;4.348;2022-11-20T11:33:06;101983.47;;;5.41;90.35
17362;BME280;8798;51.938;4.348;2022-11-20T11:35:44;102008.81;;;5.48;90.24
17362;BME280;8798;51.938;4.348;2022-11-20T11:38:29;102005.78;;;5.54;89.54
17362;BME280;8798;51.938;4.348;2022-11-20T11:41:00;102019.69;;;5.59;90.02
17362;BME280;8798;51.938;4.348;2022-11-20T11:43:31;102031.81;;;5.65;90.17
17362;BME280;8798;51.938;4.348;2022-11-20T11:46:35;102025.34;;;5.69;89.74
17362;BME280;8798;51.938;4.348;2022-11-20T11:49:15;102001.44;;;5.67;90.04
17362;BME280;8798;51.938;4.348;2022-11-20T11:52:00;101992.59;;;5.67;90.07
17362;BME280;8798;51.938;4.348;2022-11-20T11:54:35;101976.59;;;5.67;90.05
17362;BME280;8798;51.938;4.348;2022-11-20T11:57:15;101952.78;;;5.64;90.32
17362;BME280;8798;51.938;4.348;2022-11-20T11:59:57;101921.84;;;5.61;90.33
17362;BME280;8798;51.938;4.348;2022-11-20T12:02:37;101901.56;;;5.58;90.39
17362;BME280;8798;51.938;4.348;2022-11-20T12:05:16;101901.41;;;5.62;90.36
17362;BME280;8798;51.938;4.348;2022-11-20T12:07:47;101902.06;;;5.65;90.23
17362;BME280;8798;51.938;4.348;2022-11-20T12:10:20;101890.44;;;5.66;90.47
17362;BME280;8798;51.938;4.348;2022-11-20T12:12:54;101881.50;;;5.67;90.67
17362;BME280;8798;51.938;4.348;2022-11-20T12:15:30;101887.41;;;5.72;90.54
17362;BME280;8798;51.938;4.348;2022-11-20T12:17:58;101882.00;;;5.74;90.79
17362;BME280;8798;51.938;4.348;2022-11-20T12:20:40;101874.72;;;5.76;89.89
17362;BME280;8798;51.938;4.348;2022-11-20T12:23:17;101869.31;;;5.77;89.90
17362;BME280;8798;51.938;4.348;2022-11-20T12:25:54;101854.16;;;5.78;90.49
17362;BME280;8798;51.938;4.348;2022-11-20T12:28:38;101832.19;;;5.74;89.51
17362;BME280;8798;51.938;4.348;2022-11-20T12:31:37;101785.47;;;5.69;89.88
17362;BME280;8798;51.938;4.348;2022-11-20T12:37:13;101752.81;;;5.65;90.70
17362;BME280;8798;51.938;4.348;2022-11-20T12:39:46;101741.28;;;5.65;90.22
17362;BME280;8798;51.938;4.348;2022-11-20T12:42:26;101726.16;;;5.65;90.22
17362;BME280;8798;51.938;4.348;2022-11-20T12:45:38;101710.25;;;5.64;90.16
17362;BME280;8798;51.938;4.348;2022-11-20T12:48:38;101700.34;;;5.66;90.26
17362;BME280;8798;51.938;4.348;2022-11-20T12:54:55;101685.03;;;5.69;90.17
17362;BME280;8798;51.938;4.348;2022-11-20T12:57:33;101682.25;;;5.71;90.49
17362;BME280;8798;51.938;4.348;2022-11-20T13:00:10;101681.19;;;5.73;89.87
17362;BME280;8798;51.938;4.348;2022-11-20T13:03:03;101674.94;;;5.74;90.50
17362;BME280;8798;51.938;4.348;2022-11-20T13:05:43;101658.81;;;5.76;89.78
17362;BME280;8798;51.938;4.348;2022-11-20T13:08:20;101663.09;;;5.78;90.67
17362;BME280;8798;51.938;4.348;2022-11-20T13:10:56;101654.16;;;5.79;89.74
17362;BME280;8798;51.938;4.348;2022-11-20T13:13:35;101639.00;;;5.80;89.61
17362;BME280;8798;51.938;4.348;2022-11-20T13:16:11;101623.97;;;5.79;89.86
17362;BME280;8798;51.938;4.348;2022-11-20T13:18:44;101622.16;;;5.79;90.31
17362;BME280;8798;51.938;4.348;2022-11-20T13:21:16;101612.34;;;5.80;90.24
17362;BME280;8798;51.938;4.348;2022-11-20T13:23:44;101592.84;;;5.79;90.15
17362;BME280;8798;51.938;4.348;2022-11-20T13:26:17;101579.59;;;5.78;90.11
17362;BME280;8798;51.938;4.348;2022-11-20T13:28:47;101574.19;;;5.79;90.59
17362;BME280;8798;51.938;4.348;2022-11-20T13:31:28;101564.38;;;5.80;89.88
17362;BME280;8798;51.938;4.348;2022-11-20T13:34:00;101544.94;;;5.78;89.87
17362;BME280;8798;51.938;4.348;2022-11-20T13:36:29;101530.78;;;5.77;90.20
17362;BME280;8798;51.938;4.348;2022-11-20T13:38:59;101521.09;;;5.76;90.68
17362;BME280;8798;51.938;4.348;2022-11-20T13:41:29;101505.19;;;5.75;90.25